Time;durP1;ratioP1;P1;durP2;ratioP2;P2;SDS_P1;SDS_P2;PMS_P1;PMS_P2;Temp;Humidity;BMP_temperature;BMP_pressure;BME280_temperature;BME280_humidity;BME280_pressure;Samples;Min_cycle;Max_cycle;Signal;HPM_P1;HPM_P2
2023/06/27 09:26:37;;;;;;;1.58;1.10;;;24.40;99.90;;;;;;4417866;19;3382866;-25
2023/06/27 09:28:16;;;;;;;4.38;1.75;;;24.40;99.90;;;;;;4593134;19;20482;-25
2023/06/27 09:29:48;;;;;;;0.77;0.60;;;24.30;99.90;;;;;;4592141;19;20010;-26
2023/06/27 09:31:21;;;;;;;1.50;0.65;;;24.30;99.90;;;;;;4591052;19;20110;-24
2023/06/27 09:32:58;;;;;;;1.52;0.82;;;24.30;99.90;;;;;;4591495;19;20523;-25
2023/06/27 09:34:29;;;;;;;1.98;1.00;;;24.30;99.90;;;;;;4592286;19;20481;-27
2023/06/27 09:36:02;;;;;;;2.10;1.10;;;24.30;99.90;;;;;;4592054;19;20007;-25
2023/06/27 09:37:36;;;;;;;1.38;0.50;;;24.30;99.90;;;;;;4592410;19;20010;-26
2023/06/27 09:39:10;;;;;;;0.52;0.40;;;24.30;99.90;;;;;;4591793;19;20006;-25
2023/06/27 09:40:42;;;;;;;5.28;2.00;;;24.30;99.90;;;;;;4592561;19;20014;-25
2023/06/27 09:42:14;;;;;;;3.20;1.10;;;24.30;99.90;;;;;;4591848;19;20022;-26
2023/06/27 09:43:46;;;;;;;3.10;1.08;;;24.30;99.90;;;;;;4591697;19;20014;-28
2023/06/27 09:45:19;;;;;;;1.70;0.88;;;24.30;99.90;;;;;;4591256;19;20022;-25
2023/06/27 09:46:52;;;;;;;1.92;0.90;;;24.40;99.90;;;;;;4591731;19;20010;-25
2023/06/27 09:48:24;;;;;;;7.43;2.20;;;24.40;99.90;;;;;;4590967;19;20018;-23
2023/06/27 09:49:56;;;;;;;1.38;0.95;;;24.40;99.90;;;;;;4592150;19;20021;-24
2023/06/27 09:51:30;;;;;;;;;;;24.40;99.90;;;;;;4592575;19;20042;-25
2023/06/27 09:53:03;;;;;;;1.63;0.90;;;24.40;99.90;;;;;;4591190;19;19915;-29
2023/06/27 09:54:41;;;;;;;4.38;1.38;;;24.40;99.90;;;;;;4591211;19;20002;-27
2023/06/27 09:56:13;;;;;;;1.33;0.90;;;24.30;99.90;;;;;;4592096;19;20007;-27
2023/06/27 09:57:47;;;;;;;3.92;1.58;;;24.30;99.90;;;;;;4591437;19;20014;-27
2023/06/27 09:59:20;;;;;;;3.00;1.65;;;24.30;99.90;;;;;;4592441;19;20036;-24
2023/06/27 10:01:05;;;;;;;3.60;1.63;;;24.30;99.90;;;;;;4591897;19;20007;-25
2023/06/27 10:02:37;;;;;;;3.28;1.92;;;24.40;99.90;;;;;;4591990;19;20006;-27
2023/06/27 10:04:09;;;;;;;2.80;1.45;;;24.30;99.90;;;;;;4590311;19;20011;-25
2023/06/27 10:05:45;;;;;;;5.85;2.17;;;24.40;99.90;;;;;;4591496;19;20022;-28
2023/06/27 10:07:17;;;;;;;2.92;1.50;;;24.40;99.90;;;;;;4590631;19;19999;-25
2023/06/27 10:08:49;;;;;;;;;;;24.40;99.90;;;;;;4591481;19;20514;-24
2023/06/27 10:10:20;;;;;;;;;;;24.40;99.90;;;;;;4592533;19;20270;-24
2023/06/27 10:11:51;;;;;;;;;;;24.40;99.90;;;;;;4591660;19;19915;-24
2023/06/27 10:13:22;;;;;;;;;;;24.40;99.90;;;;;;4591354;19;19910;-26
2023/06/27 10:14:56;;;;;;;;;;;24.30;99.90;;;;;;4592581;19;20402;-28
2023/06/27 10:16:27;;;;;;;;;;;24.20;99.90;;;;;;4592491;19;20331;-24
2023/06/27 10:17:58;;;;;;;;;;;24.10;99.90;;;;;;4592012;19;19919;-25
2023/06/27 10:19:31;;;;;;;;;;;23.90;99.90;;;;;;4592285;19;19923;-24
2023/06/27 10:21:02;;;;;;;;;;;23.90;99.90;;;;;;4592142;19;19951;-25
2023/06/27 10:22:34;;;;;;;;;;;23.70;99.90;;;;;;4591787;19;19915;-23
2023/06/27 10:24:06;;;;;;;;;;;23.60;99.90;;;;;;4592605;19;19990;-26
2023/06/27 10:25:38;;;;;;;;;;;23.60;99.90;;;;;;4590327;19;19919;-27
2023/06/27 10:27:13;;;;;;;;;;;23.50;99.90;;;;;;4591978;19;19918;-25
2023/06/27 10:28:50;;;;;;;;;;;23.50;99.90;;;;;;4593072;19;19994;-24
2023/06/27 10:30:24;;;;;;;;;;;23.50;99.90;;;;;;4591609;19;19919;-28
2023/06/27 10:31:55;;;;;;;;;;;23.70;99.90;;;;;;4592263;19;19918;-29
2023/06/27 10:33:31;;;;;;;;;;;23.80;99.90;;;;;;4591935;19;19986;-26
2023/06/27 10:35:08;;;;;;;;;;;23.90;99.90;;;;;;4591796;19;19920;-31
2023/06/27 10:36:54;;;;;;;;;;;22.40;99.90;;;;;;4591282;19;19910;-29
2023/06/27 10:38:36;;;;;;;;;;;21.20;99.90;;;;;;4592413;19;19974;-28
2023/06/27 10:40:08;;;;;;;;;;;20.50;99.90;;;;;;4591389;19;19949;-24
2023/06/27 10:41:39;;;;;;;;;;;20.00;99.90;;;;;;4591970;19;19937;-24
2023/06/27 10:43:20;;;;;;;;;;;19.90;99.90;;;;;;4591430;19;19918;-24
2023/06/27 10:45:07;;;;;;;;;;;19.80;99.90;;;;;;4590857;19;19937;-25
2023/06/27 10:46:38;;;;;;;;;;;19.80;99.90;;;;;;4592215;19;19923;-26
2023/06/27 10:48:09;;;;;;;;;;;19.80;99.90;;;;;;4590926;19;20288;-23
2023/06/27 10:49:40;;;;;;;;;;;19.80;99.90;;;;;;4591113;19;19911;-24
2023/06/27 10:51:14;;;;;;;;;;;19.70;99.90;;;;;;4591590;19;19915;-25
2023/06/27 10:55:08;;;;;;;;;;;19.80;99.90;;;;;;4592168;19;19911;-27
2023/06/27 10:56:42;;;;;;;;;;;19.80;99.90;;;;;;4590968;19;19914;-24
2023/06/27 10:58:14;;;;;;;;;;;19.80;99.90;;;;;;4591600;19;19923;-22
2023/06/27 10:59:45;;;;;;;;;;;19.80;99.90;;;;;;4592184;19;19914;-27
2023/06/27 11:01:19;;;;;;;;;;;19.80;99.90;;;;;;4592123;19;19981;-27
2023/06/27 11:02:54;;;;;;;;;;;19.80;99.90;;;;;;4590580;19;19945;-28
2023/06/27 11:04:40;;;;;;;;;;;19.80;99.90;;;;;;4591506;19;19918;-24
2023/06/27 11:06:11;;;;;;;;;;;19.80;99.90;;;;;;4590525;19;19915;-29
2023/06/27 11:07:55;;;;;;;;;;;19.80;99.90;;;;;;4590758;19;19974;-24
2023/06/27 11:09:28;;;;;;;;;;;19.80;99.90;;;;;;4590826;19;19915;-23
2023/06/27 11:15:45;;;;;;;;;;;19.70;99.90;;;;;;4591772;19;19907;-24
2023/06/27 11:17:17;;;;;;;;;;;19.70;99.90;;;;;;4591013;19;19925;-24
2023/06/27 11:18:52;;;;;;;;;;;19.70;99.90;;;;;;4591501;19;20331;-29
2023/06/27 11:20:23;;;;;;;;;;;19.70;99.90;;;;;;4591826;19;19922;-24
2023/06/27 11:21:58;;;;;;;;;;;19.70;99.90;;;;;;4590346;19;19935;-23
2023/06/27 11:23:29;;;;;;;;;;;19.70;99.90;;;;;;4590570;19;19917;-23
2023/06/27 11:25:09;;;;;;;;;;;19.70;99.90;;;;;;4589598;19;19911;-27
2023/06/27 11:26:49;;;;;;;;;;;19.70;99.90;;;;;;4590495;19;19918;-24
2023/06/27 11:28:22;;;;;;;;;;;19.70;99.90;;;;;;4591913;19;19921;-23
2023/06/27 11:29:58;;;;;;;;;;;19.70;99.90;;;;;;4591328;19;19929;-25
2023/06/27 11:31:44;;;;;;;;;;;19.60;99.90;;;;;;4590891;19;19911;-24
2023/06/27 11:33:19;;;;;;;;;;;19.70;99.90;;;;;;4591018;19;19918;-24
2023/06/27 11:34:50;;;;;;;;;;;19.70;99.90;;;;;;4591159;19;19922;-26
2023/06/27 11:36:21;;;;;;;;;;;19.70;99.90;;;;;;4591219;19;19943;-22
2023/06/27 11:37:54;;;;;;;;;;;19.70;99.90;;;;;;4589084;19;19945;-24
2023/06/27 11:39:28;;;;;;;;;;;19.70;99.90;;;;;;4590102;19;19982;-26
2023/06/27 11:40:59;;;;;;;;;;;19.70;99.90;;;;;;4590518;19;19911;-25
2023/06/27 11:42:33;;;;;;;;;;;19.70;99.90;;;;;;4591809;19;19982;-22
2023/06/27 11:44:06;;;;;;;;;;;19.70;99.90;;;;;;4590678;19;19931;-22
2023/06/27 11:45:40;;;;;;;;;;;19.70;99.90;;;;;;4591255;19;19915;-23
2023/06/27 11:47:12;;;;;;;;;;;19.70;99.90;;;;;;4588890;19;19970;-25
2023/06/27 11:48:44;;;;;;;;;;;19.70;99.90;;;;;;4589538;19;19925;-25
2023/06/27 11:50:15;;;;;;;;;;;19.70;99.90;;;;;;4590476;19;19923;-22
2023/06/27 11:51:46;;;;;;;;;;;19.70;99.90;;;;;;4590806;19;19937;-26
2023/06/27 11:53:19;;;;;;;;;;;19.80;99.90;;;;;;4590265;19;20002;-24
2023/06/27 11:54:50;;;;;;;;;;;19.80;99.90;;;;;;4589630;19;19923;-22
2023/06/27 11:56:20;;;;;;;;;;;19.70;99.90;;;;;;4589771;19;19925;-23
2023/06/27 11:57:54;;;;;;;;;;;19.80;99.90;;;;;;4590709;19;20404;-25
2023/06/27 11:59:31;;;;;;;;;;;19.80;99.90;;;;;;4591028;19;19914;-23
2023/06/27 12:01:10;;;;;;;;;;;19.70;99.90;;;;;;4590664;19;19966;-27
2023/06/27 12:02:41;;;;;;;;;;;19.80;99.90;;;;;;4589714;19;19922;-26
2023/06/27 12:04:13;;;;;;;;;;;19.80;99.90;;;;;;4590159;19;20360;-22
2023/06/27 12:05:44;;;;;;;;;;;19.80;99.90;;;;;;4590835;19;19915;-27
2023/06/27 12:07:19;;;;;;;;;;;19.80;99.90;;;;;;4590468;19;19952;-24
2023/06/27 12:08:53;;;;;;;;;;;19.80;99.90;;;;;;4589467;19;19923;-24
2023/06/27 12:10:24;;;;;;;;;;;19.80;99.90;;;;;;4590460;19;19919;-21
2023/06/27 12:11:59;;;;;;;;;;;19.80;99.90;;;;;;4591142;19;19927;-28
2023/06/27 12:13:37;;;;;;;;;;;19.80;99.90;;;;;;4592085;19;19918;-23
2023/06/27 12:15:09;;;;;;;;;;;19.80;99.90;;;;;;4589288;19;19936;-24
2023/06/27 12:16:40;;;;;;;;;;;19.80;99.90;;;;;;4590737;19;19919;-26
2023/06/27 12:18:19;;;;;;;;;;;19.80;99.90;;;;;;4590683;19;19915;-26
2023/06/27 12:19:53;;;;;;;;;;;19.90;99.90;;;;;;4590521;19;20257;-24
2023/06/27 12:21:25;;;;;;;;;;;19.90;99.90;;;;;;4589309;19;20322;-26
2023/06/27 12:22:56;;;;;;;;;;;19.90;99.90;;;;;;4589956;19;19915;-22
2023/06/27 12:24:27;;;;;;;;;;;19.90;99.90;;;;;;4590686;19;19922;-24
2023/06/27 12:25:58;;;;;;;;;;;19.90;99.90;;;;;;4588740;19;19911;-26
2023/06/27 12:27:33;;;;;;;;;;;19.90;99.90;;;;;;4593443;19;19935;-24
2023/06/27 12:29:05;;;;;;;;;;;19.90;99.90;;;;;;4594810;19;19932;-24
2023/06/27 12:30:36;;;;;;;;;;;19.90;99.90;;;;;;4594773;19;19918;-25
2023/06/27 12:32:07;;;;;;;;;;;19.90;99.90;;;;;;4593519;19;19919;-26
2023/06/27 12:33:38;;;;;;;;;;;19.90;99.90;;;;;;4593709;19;19970;-24
2023/06/27 12:35:10;;;;;;;;;;;20.00;99.90;;;;;;4595575;19;19915;-29
2023/06/27 12:36:42;;;;;;;;;;;20.00;99.90;;;;;;4594359;19;19923;-26
2023/06/27 12:38:15;;;;;;;;;;;20.00;99.90;;;;;;4593410;19;19914;-25
2023/06/27 12:39:46;;;;;;;;;;;19.90;99.90;;;;;;4594186;19;19949;-25
2023/06/27 12:41:18;;;;;;;;;;;20.00;99.90;;;;;;4594948;19;19918;-22
2023/06/27 12:42:49;;;;;;;;;;;20.00;99.90;;;;;;4594434;19;19911;-25
2023/06/27 12:44:20;;;;;;;;;;;20.00;99.90;;;;;;4595030;19;19974;-28
2023/06/27 12:45:59;;;;;;;;;;;20.00;99.90;;;;;;4592911;19;19923;-26
2023/06/27 12:47:33;;;;;;;;;;;20.00;99.90;;;;;;4593906;19;19923;-24
2023/06/27 12:49:04;;;;;;;;;;;20.00;99.90;;;;;;4593799;19;19927;-24
2023/06/27 12:50:35;;;;;;;;;;;20.00;99.90;;;;;;4594654;19;20346;-24
2023/06/27 12:52:06;;;;;;;;;;;20.00;99.90;;;;;;4592455;19;20332;-26
2023/06/27 12:53:38;;;;;;;;;;;20.00;99.90;;;;;;4593096;19;19923;-23
2023/06/27 13:16:13;;;;;;;;;;;20.20;99.90;;;;;;4593836;19;19910;-24
2023/06/27 13:17:46;;;;;;;;;;;20.20;99.90;;;;;;4595509;19;19915;-25
2023/06/27 13:19:18;;;;;;;;;;;20.30;99.90;;;;;;4594229;19;20301;-22
2023/06/27 13:20:49;;;;;;;;;;;20.30;99.90;;;;;;4593578;19;20286;-23
2023/06/27 13:22:22;;;;;;;;;;;20.30;99.90;;;;;;4592959;19;19934;-23
2023/06/27 13:23:53;;;;;;;;;;;20.30;99.90;;;;;;4590185;19;20002;-25
2023/06/27 13:25:25;;;;;;;;;;;20.40;99.90;;;;;;4590405;19;20242;-27
2023/06/27 13:27:01;;;;;;;;;;;20.30;99.90;;;;;;4589535;19;20345;-23
2023/06/27 13:28:35;;;;;;;;;;;20.40;99.90;;;;;;4591143;19;19915;-26
2023/06/27 13:30:15;;;;;;;;;;;20.40;99.90;;;;;;4588932;19;19918;-26
2023/06/27 13:31:55;;;;;;;;;;;20.50;99.90;;;;;;4591215;19;19919;-25
2023/06/27 13:33:26;;;;;;;;;;;20.50;99.90;;;;;;4590998;19;19915;-25
2023/06/27 13:34:58;;;;;;;;;;;20.50;99.90;;;;;;4591735;19;19910;-26
2023/06/27 13:36:29;;;;;;;;;;;20.50;99.90;;;;;;4591105;19;19942;-29
2023/06/27 13:38:02;;;;;;;;;;;20.60;99.90;;;;;;4590499;19;19911;-25
2023/06/27 13:39:33;;;;;;;;;;;20.60;99.90;;;;;;4589835;19;19974;-24
2023/06/27 13:41:05;;;;;;;;;;;20.60;99.90;;;;;;4590309;19;20362;-25
2023/06/27 13:42:35;;;;;;;;;;;20.60;99.90;;;;;;4591179;19;19918;-26
2023/06/27 13:44:07;;;;;;;;;;;20.60;99.90;;;;;;4591661;19;20245;-27
2023/06/27 13:45:38;;;;;;;;;;;20.60;99.90;;;;;;4591484;19;19926;-26
2023/06/27 13:47:09;;;;;;;;;;;20.50;99.90;;;;;;4591300;19;19915;-25
2023/06/27 13:48:40;;;;;;;;;;;20.50;99.90;;;;;;4591432;19;19926;-25
2023/06/27 13:50:11;;;;;;;;;;;20.50;99.90;;;;;;4591745;19;19926;-26
2023/06/27 13:51:42;;;;;;;;;;;20.50;99.90;;;;;;4591237;19;19910;-27
2023/06/27 13:53:13;;;;;;;;;;;20.50;99.90;;;;;;4590127;19;19911;-25
2023/06/27 13:54:45;;;;;;;;;;;20.50;99.90;;;;;;4590538;19;19919;-28
2023/06/27 13:56:16;;;;;;;;;;;20.50;99.90;;;;;;4590758;19;19919;-25
2023/06/27 13:57:48;;;;;;;;;;;20.50;99.90;;;;;;4590374;19;19915;-27
2023/06/27 13:59:20;;;;;;;;;;;20.50;99.90;;;;;;4591937;19;19928;-24
2023/06/27 14:00:51;;;;;;;;;;;20.40;99.90;;;;;;4592976;19;19918;-29
2023/06/27 14:02:22;;;;;;;;;;;20.40;99.90;;;;;;4591571;19;20253;-24
2023/06/27 14:03:55;;;;;;;;;;;20.40;99.90;;;;;;4593261;19;19918;-25
2023/06/27 14:05:27;;;;;;;;;;;20.40;99.90;;;;;;4593725;19;19919;-23
2023/06/27 14:06:58;;;;;;;;;;;20.40;99.90;;;;;;4594279;19;19942;-26
2023/06/27 14:08:30;;;;;;;;;;;20.40;99.90;;;;;;4591834;19;19918;-26
2023/06/27 14:10:12;;;;;;;;;;;20.40;99.90;;;;;;4592415;19;19926;-26
2023/06/27 14:21:27;;;;;;;;;;;20.30;99.90;;;;;;4594707;19;19909;-25
2023/06/27 14:22:59;;;;;;;;;;;20.30;99.90;;;;;;4593431;19;19944;-26
2023/06/27 14:24:30;;;;;;;;;;;20.30;99.90;;;;;;4591726;19;20033;-25
2023/06/27 14:26:02;;;;;;;;;;;20.30;99.90;;;;;;4587917;19;19922;-25
2023/06/27 14:27:33;;;;;;;;;;;20.20;99.90;;;;;;4591764;19;19982;-25
2023/06/27 14:29:19;;;;;;;;;;;20.20;99.90;;;;;;4591712;19;19994;-25
2023/06/27 14:30:50;;;;;;;;;;;20.20;99.90;;;;;;4592207;19;19938;-25
2023/06/27 14:32:22;;;;;;;;;;;20.20;99.90;;;;;;4591471;19;19911;-27
2023/06/27 14:33:53;;;;;;;;;;;20.20;99.90;;;;;;4590736;19;19943;-25
2023/06/27 14:35:24;;;;;;;;;;;20.20;99.90;;;;;;4592634;19;19914;-29
2023/06/27 14:36:57;;;;;;;;;;;20.10;99.90;;;;;;4591278;19;19931;-29
2023/06/27 14:38:28;;;;;;;;;;;20.10;99.90;;;;;;4592371;19;19931;-27
2023/06/27 14:40:01;;;;;;;;;;;20.10;99.90;;;;;;4591283;19;19932;-25
2023/06/27 14:41:32;;;;;;;;;;;20.10;99.90;;;;;;4591695;19;20415;-26
2023/06/27 14:43:05;;;;;;;;;;;20.10;99.90;;;;;;4591400;19;19966;-27
2023/06/27 14:44:35;;;;;;;;;;;20.10;99.90;;;;;;4592247;19;19915;-24
2023/06/27 14:46:07;;;;;;;;;;;20.10;99.90;;;;;;4592404;19;19919;-27
2023/06/27 14:47:38;;;;;;;;;;;20.10;99.90;;;;;;4592152;19;19987;-28
2023/06/27 15:27:25;;;;;;;;;;;19.80;99.90;;;;;;4587322;19;19925;-26
2023/06/27 15:28:59;;;;;;;;;;;19.90;99.90;;;;;;4591296;19;19926;-23
2023/06/27 15:30:30;;;;;;;;;;;19.90;99.90;;;;;;4591982;19;19919;-23
2023/06/27 15:32:01;;;;;;;;;;;19.90;99.90;;;;;;4591245;19;19915;-26
2023/06/27 15:33:32;;;;;;;;;;;20.00;99.90;;;;;;4589782;19;20000;-29
2023/06/27 15:35:05;;;;;;;;;;;20.00;99.90;;;;;;4591011;19;19918;-23
2023/06/27 15:36:36;;;;;;;;;;;20.00;99.90;;;;;;4591517;19;19996;-25
2023/06/27 15:38:12;;;;;;;;;;;20.00;99.90;;;;;;4590995;19;19919;-25
2023/06/27 15:39:43;;;;;;;;;;;20.00;99.90;;;;;;4590070;19;19915;-30
2023/06/27 15:41:16;;;;;;;;;;;19.90;99.90;;;;;;4590690;19;19914;-25
2023/06/27 15:42:47;;;;;;;;;;;19.90;99.90;;;;;;4591908;19;19948;-25
2023/06/27 15:44:18;;;;;;;;;;;19.90;99.90;;;;;;4590132;19;20338;-23
2023/06/27 15:45:49;;;;;;;;;;;19.90;99.90;;;;;;4590770;19;20255;-23
2023/06/27 15:47:20;;;;;;;;;;;19.90;99.90;;;;;;4591438;19;19939;-23
2023/06/27 15:48:53;;;;;;;;;;;19.80;99.90;;;;;;4591210;19;19970;-26
2023/06/27 15:50:24;;;;;;;;;;;19.80;99.90;;;;;;4590514;19;19911;-28
2023/06/27 15:51:56;;;;;;;;;;;19.80;99.90;;;;;;4590799;19;20297;-24
2023/06/27 15:53:29;;;;;;;;;;;19.80;99.90;;;;;;4589637;19;19919;-24
2023/06/27 15:55:19;;;;;;;;;;;19.80;99.90;;;;;;4590987;19;20333;-29
2023/06/27 15:56:50;;;;;;;;;;;19.80;99.90;;;;;;4591368;19;19922;-22
2023/06/27 15:58:21;;;;;;;;;;;19.80;99.90;;;;;;4589856;19;20297;-25
2023/06/27 15:59:52;;;;;;;;;;;19.70;99.90;;;;;;4590745;19;19923;-28
2023/06/27 16:01:24;;;;;;;;;;;19.70;99.90;;;;;;4590807;19;20328;-26
2023/06/27 16:02:56;;;;;;;;;;;19.70;99.90;;;;;;4594666;19;20258;-23
2023/06/27 16:04:27;;;;;;;;;;;19.70;99.90;;;;;;4595215;19;19945;-25
2023/06/27 16:05:58;;;;;;;;;;;19.70;99.90;;;;;;4595991;19;19929;-24
2023/06/27 16:07:32;;;;;;;;;;;19.60;99.90;;;;;;4595772;19;19911;-22
2023/06/27 16:09:03;;;;;;;;;;;19.60;99.90;;;;;;4595365;19;19947;-26
2023/06/27 16:10:34;;;;;;;;;;;19.60;99.90;;;;;;4595737;19;20233;-23
2023/06/27 16:12:06;;;;;;;;;;;19.60;99.90;;;;;;4595924;19;19929;-26
2023/06/27 16:13:37;;;;;;;;;;;19.60;99.90;;;;;;4594097;19;19942;-23
2023/06/27 16:15:08;;;;;;;;;;;19.50;99.90;;;;;;4594247;19;20274;-23
2023/06/27 16:16:42;;;;;;;;;;;19.50;99.90;;;;;;4595203;19;19919;-25
2023/06/27 16:18:13;;;;;;;;;;;19.50;99.90;;;;;;4595504;19;19918;-25
2023/06/27 16:19:45;;;;;;;;;;;19.50;99.90;;;;;;4595845;19;19914;-24
2023/06/27 16:21:17;;;;;;;;;;;19.40;99.90;;;;;;4595276;19;19923;-24
2023/06/27 16:22:51;;;;;;;;;;;19.40;99.90;;;;;;4595179;19;20351;-26
2023/06/27 16:24:22;;;;;;;;;;;19.40;99.90;;;;;;4595366;19;19941;-24
2023/06/27 16:25:54;;;;;;;;;;;19.40;99.90;;;;;;4592487;19;19929;-25
2023/06/27 16:27:25;;;;;;;;;;;19.40;99.90;;;;;;4593503;19;19974;-24
2023/06/27 16:28:56;;;;;;;;;;;19.40;99.90;;;;;;4593883;19;19922;-23
2023/06/27 16:30:27;;;;;;;;;;;19.40;99.90;;;;;;4594853;19;19925;-24
2023/06/27 16:31:58;;;;;;;;;;;19.30;99.90;;;;;;4596006;19;19932;-27
2023/06/27 16:33:30;;;;;;;;;;;19.30;99.90;;;;;;4594623;19;19919;-26
2023/06/27 16:35:01;;;;;;;;;;;19.30;99.90;;;;;;4595462;19;19907;-25
2023/06/27 16:36:32;;;;;;;;;;;19.40;99.90;;;;;;4595732;19;19918;-25
2023/06/27 16:38:07;;;;;;;;;;;19.40;99.90;;;;;;4593876;19;20021;-23
2023/06/27 16:39:39;;;;;;;;;;;19.30;99.90;;;;;;4594754;19;19931;-24
2023/06/27 16:41:10;;;;;;;;;;;19.40;99.90;;;;;;4594943;19;20003;-27
2023/06/27 16:42:42;;;;;;;;;;;19.40;99.90;;;;;;4595079;19;20000;-24
2023/06/27 16:44:14;;;;;;;;;;;19.40;99.90;;;;;;4594742;19;19923;-25
2023/06/27 16:45:45;;;;;;;;;;;19.40;99.90;;;;;;4595075;19;19918;-26
2023/06/27 16:47:16;;;;;;;;;;;19.40;99.90;;;;;;4594003;19;19922;-23
2023/06/27 16:48:48;;;;;;;;;;;19.50;99.90;;;;;;4594478;19;19974;-25
2023/06/27 16:50:18;;;;;;;;;;;19.50;99.90;;;;;;4593672;19;19933;-28
2023/06/27 16:51:50;;;;;;;;;;;19.50;99.90;;;;;;4593978;19;20264;-24
2023/06/27 16:53:22;;;;;;;;;;;19.60;99.90;;;;;;4593383;19;19915;-23
2023/06/27 16:54:54;;;;;;;;;;;19.60;99.90;;;;;;4594746;19;19915;-25
2023/06/27 16:56:26;;;;;;;;;;;19.60;99.90;;;;;;4594511;19;19919;-27
2023/06/27 16:57:57;;;;;;;;;;;19.60;99.90;;;;;;4595084;19;20259;-27
2023/06/27 16:59:28;;;;;;;;;;;19.60;99.90;;;;;;4592133;19;19927;-28
2023/06/27 17:00:59;;;;;;;;;;;19.60;99.90;;;;;;4592174;19;19947;-23
2023/06/27 17:02:30;;;;;;;;;;;19.60;99.90;;;;;;4592434;19;19942;-22
2023/06/27 17:04:01;;;;;;;;;;;19.60;99.90;;;;;;4592538;19;20324;-24
2023/06/27 17:05:33;;;;;;;;;;;19.60;99.90;;;;;;4592837;19;19930;-23
2023/06/27 17:07:05;;;;;;;;;;;19.60;99.90;;;;;;4592428;19;19922;-25
2023/06/27 17:08:36;;;;;;;;;;;19.50;99.90;;;;;;4592133;19;19989;-25
2023/06/27 17:10:08;;;;;;;;;;;19.60;99.90;;;;;;4592458;19;19915;-27
2023/06/27 17:11:39;;;;;;;;;;;19.50;99.90;;;;;;4592721;19;19917;-25
2023/06/27 17:13:10;;;;;;;;;;;19.50;99.90;;;;;;4589467;19;19915;-25
2023/06/27 17:14:43;;;;;;;;;;;19.50;99.90;;;;;;4592017;19;19923;-22
2023/06/27 17:16:14;;;;;;;;;;;19.50;99.90;;;;;;4591938;19;19922;-24
2023/06/27 17:17:46;;;;;;;;;;;19.50;99.90;;;;;;4592026;19;19914;-25
2023/06/27 17:19:18;;;;;;;;;;;19.50;99.90;;;;;;4592074;19;19929;-24
2023/06/27 17:20:50;;;;;;;;;;;19.50;99.90;;;;;;4591818;19;20316;-26
2023/06/27 17:22:21;;;;;;;;;;;19.50;99.90;;;;;;4591745;19;19919;-26
2023/06/27 17:23:53;;;;;;;;;;;19.40;99.90;;;;;;4591778;19;19918;-24
2023/06/27 17:25:25;;;;;;;;;;;19.50;99.90;;;;;;4590715;19;19914;-26
2023/06/27 17:26:56;;;;;;;;;;;19.50;99.90;;;;;;4591738;19;20322;-24
2023/06/27 17:28:28;;;;;;;;;;;19.50;99.90;;;;;;4590835;19;19926;-24
2023/06/27 17:29:59;;;;;;;;;;;19.50;99.90;;;;;;4591499;19;19953;-25
2023/06/27 17:31:30;;;;;;;;;;;19.50;99.90;;;;;;4591002;19;19929;-25
2023/06/27 17:33:02;;;;;;;;;;;19.40;99.90;;;;;;4592920;19;19941;-26
2023/06/27 17:34:33;;;;;;;;;;;19.40;99.90;;;;;;4592733;19;19970;-24
2023/06/27 17:36:04;;;;;;;;;;;19.40;99.90;;;;;;4592052;19;19914;-26
2023/06/27 17:37:36;;;;;;;;;;;19.40;99.90;;;;;;4594308;19;19918;-23
2023/06/27 17:39:09;;;;;;;;;;;19.40;99.90;;;;;;4592617;19;19969;-25
2023/06/27 17:40:40;;;;;;;;;;;19.40;99.90;;;;;;4593214;19;20240;-28
2023/06/27 17:42:13;;;;;;;;;;;19.40;99.90;;;;;;4593614;19;19926;-27
2023/06/27 17:43:43;;;;;;;;;;;19.40;99.90;;;;;;4592627;19;19915;-24
2023/06/27 17:45:15;;;;;;;;;;;19.40;99.90;;;;;;4590250;19;19941;-25
2023/06/27 17:46:46;;;;;;;;;;;19.40;99.90;;;;;;4592600;19;20263;-25
2023/06/27 17:48:17;;;;;;;;;;;19.40;99.90;;;;;;4592918;19;19918;-29
2023/06/27 17:49:48;;;;;;;;;;;19.40;99.90;;;;;;4591712;19;19927;-23
2023/06/27 17:51:20;;;;;;;;;;;19.40;99.90;;;;;;4592360;19;19919;-28
2023/06/27 17:52:53;;;;;;;;;;;19.40;99.90;;;;;;4592737;19;19933;-23
2023/06/27 17:54:24;;;;;;;;;;;19.40;99.90;;;;;;4591659;19;19919;-27
2023/06/27 17:55:56;;;;;;;;;;;19.40;99.90;;;;;;4592226;19;19943;-23
2023/06/27 17:57:29;;;;;;;;;;;19.40;99.90;;;;;;4591003;19;20411;-24
2023/06/27 17:59:00;;;;;;;;;;;19.40;99.90;;;;;;4593260;19;19930;-28
2023/06/27 18:00:32;;;;;;;;;;;19.40;99.90;;;;;;4593084;19;19937;-25
2023/06/27 18:02:03;;;;;;;;;;;19.40;99.90;;;;;;4592890;19;19926;-30
2023/06/27 18:03:35;;;;;;;;;;;19.40;99.90;;;;;;4591972;19;19918;-25
2023/06/27 18:05:07;;;;;;;;;;;19.40;99.90;;;;;;4592024;19;19921;-26
2023/06/27 18:06:38;;;;;;;;;;;19.30;99.90;;;;;;4593412;19;19945;-27
2023/06/27 18:08:15;;;;;;;;;;;19.30;99.90;;;;;;4592194;19;19918;-25
2023/06/27 18:09:47;;;;;;;;;;;19.30;99.90;;;;;;4591704;19;19919;-26
2023/06/27 18:11:18;;;;;;;;;;;19.30;99.90;;;;;;4593204;19;20590;-27
2023/06/27 18:12:49;;;;;;;;;;;19.30;99.90;;;;;;4591532;19;19942;-24
2023/06/27 18:14:20;;;;;;;;;;;19.30;99.90;;;;;;4589273;19;19929;-28
2023/06/27 18:15:51;;;;;;;;;;;19.30;99.90;;;;;;4592632;19;19975;-23
2023/06/27 18:17:22;;;;;;;;;;;19.30;99.90;;;;;;4591672;19;19923;-23
2023/06/27 18:18:54;;;;;;;;;;;19.30;99.90;;;;;;4592129;19;19919;-24
2023/06/27 18:20:25;;;;;;;;;;;19.30;99.90;;;;;;4592455;19;19922;-22
2023/06/27 18:21:56;;;;;;;;;;;19.20;99.90;;;;;;4593008;19;19918;-27
2023/06/27 18:23:28;;;;;;;;;;;19.20;99.90;;;;;;4592275;19;19922;-25
2023/06/27 18:25:00;;;;;;;;;;;19.20;99.90;;;;;;4592091;19;19907;-24
2023/06/27 18:26:51;;;;;;;;;;;19.20;99.90;;;;;;4592324;19;19918;-27
2023/06/27 18:28:23;;;;;;;;;;;19.20;99.90;;;;;;4591267;19;19922;-25
2023/06/27 18:29:56;;;;;;;;;;;19.20;99.90;;;;;;4592934;19;20323;-29
2023/06/27 18:31:26;;;;;;;;;;;19.20;99.90;;;;;;4591958;19;20280;-25
2023/06/27 18:33:00;;;;;;;;;;;19.20;99.90;;;;;;4590915;19;19921;-24
2023/06/27 18:34:33;;;;;;;;;;;19.20;99.90;;;;;;4591384;19;19921;-21
2023/06/27 18:36:04;;;;;;;;;;;19.20;99.90;;;;;;4592252;19;20272;-24
2023/06/27 18:37:35;;;;;;;;;;;19.20;99.90;;;;;;4593199;19;19935;-24
2023/06/27 18:39:06;;;;;;;;;;;19.20;99.90;;;;;;4592188;19;19936;-24
2023/06/27 18:40:38;;;;;;;;;;;19.20;99.90;;;;;;4592627;19;20331;-25
2023/06/27 18:42:09;;;;;;;;;;;19.20;99.90;;;;;;4590734;19;19990;-26
2023/06/27 18:43:40;;;;;;;;;;;19.20;99.90;;;;;;4590653;19;19923;-27
2023/06/27 18:45:12;;;;;;;;;;;19.20;99.90;;;;;;4590760;19;19923;-25
2023/06/27 18:46:43;;;;;;;;;;;19.20;99.90;;;;;;4591076;19;19923;-27
2023/06/27 18:48:15;;;;;;;;;;;19.10;99.90;;;;;;4593271;19;19927;-23
2023/06/27 18:49:46;;;;;;;;;;;19.10;99.90;;;;;;4591826;19;19927;-26
2023/06/27 18:51:17;;;;;;;;;;;19.10;99.90;;;;;;4592866;19;19926;-27
2023/06/27 18:52:50;;;;;;;;;;;19.10;99.90;;;;;;4592251;19;19970;-27
2023/06/27 18:54:21;;;;;;;;;;;19.10;99.90;;;;;;4592150;19;19942;-25
2023/06/27 18:55:52;;;;;;;;;;;19.10;99.90;;;;;;4592031;19;19986;-25
2023/06/27 18:57:25;;;;;;;;;;;19.10;99.90;;;;;;4588921;19;19915;-26
2023/06/27 18:58:56;;;;;;;;;;;19.10;99.90;;;;;;4592294;19;19915;-26
2023/06/27 19:00:27;;;;;;;;;;;19.10;99.90;;;;;;4591766;19;19929;-27
2023/06/27 19:01:59;;;;;;;;;;;19.10;99.90;;;;;;4593253;19;20312;-27
2023/06/27 19:03:31;;;;;;;;;;;19.10;99.90;;;;;;4590643;19;19933;-26
2023/06/27 19:05:02;;;;;;;;;;;19.10;99.90;;;;;;4591981;19;20349;-25
2023/06/27 19:06:34;;;;;;;;;;;19.10;99.90;;;;;;4590684;19;19914;-26
2023/06/27 19:08:05;;;;;;;;;;;19.10;99.90;;;;;;4590523;19;19919;-25
2023/06/27 19:09:38;;;;;;;;;;;19.10;99.90;;;;;;4591127;19;19918;-27
2023/06/27 19:11:09;;;;;;;;;;;19.10;99.90;;;;;;4591003;19;19922;-26
2023/06/27 19:12:40;;;;;;;;;;;19.10;99.90;;;;;;4590721;19;19919;-28
2023/06/27 19:14:11;;;;;;;;;;;19.10;99.90;;;;;;4592445;19;19922;-27
2023/06/27 19:15:42;;;;;;;;;;;19.10;99.90;;;;;;4590840;19;19964;-25
2023/06/27 19:17:13;;;;;;;;;;;19.10;99.90;;;;;;4590983;19;19911;-27
2023/06/27 19:18:44;;;;;;;;;;;19.00;99.90;;;;;;4591349;19;19970;-26
2023/06/27 19:20:16;;;;;;;;;;;19.00;99.90;;;;;;4591230;19;19914;-28
2023/06/27 19:21:48;;;;;;;;;;;19.10;99.90;;;;;;4590412;19;19919;-26
2023/06/27 19:23:20;;;;;;;;;;;19.00;99.90;;;;;;4591599;19;19922;-25
2023/06/27 19:24:54;;;;;;;;;;;19.00;99.90;;;;;;4590435;19;19923;-26
2023/06/27 19:26:26;;;;;;;;;;;19.00;99.90;;;;;;4590555;19;19925;-26
2023/06/27 19:27:58;;;;;;;;;;;19.00;99.90;;;;;;4589528;19;19918;-27
2023/06/27 19:29:29;;;;;;;;;;;19.00;99.90;;;;;;4591073;19;19946;-23
2023/06/27 19:31:00;;;;;;;;;;;18.90;99.90;;;;;;4590956;19;19922;-23
2023/06/27 19:32:31;;;;;;;;;;;18.90;99.90;;;;;;4590350;19;20340;-24
2023/06/27 19:34:02;;;;;;;;;;;18.90;99.90;;;;;;4590611;19;19922;-23
2023/06/27 19:35:36;;;;;;;;;;;18.90;99.90;;;;;;4587872;19;19907;-26